Weather at TJ-CJ Private Heliport

Public forecast

Using degrees Fahrenheit for public forecast. Weather courtesy of forecast.io.

Closest aviation weather report (METAR) to TJ-CJ Private Heliport

Closest report is Randolph Air Force Base, 5.0 nm (9.3 km) NNE.

2024/07/24 04:55 (retrieved 24 minutes ago)

KRND 240455Z AUTO 00000KT 10SM CLR 24/22 A3004 RMK AO2 SLP165 T02410221

Closest aviation forecast (TAF) to TJ-CJ Private Heliport

Forecast is more than 6 hours old.

Closest forecast is Randolph Air Force Base, 5.0 nm (9.3 km) NNE.

2024/07/23 22:39 Ammendment (retrieved 7 hours ago)

TAF AMD KRND 232219Z 2322/2422 05010G15KT 9999 VCTS SCT030CB SCT100 BKN200 QNH2990INS BECMG 2400/2401 05009KT 9999 NSW FEW030 BKN050 BKN085 QNH2990INS BECMG 2409/2410 36006KT 4800 BR SCT006 BKN010 OVC015 QNH3005INS BECMG 2410/2411 VRB06KT 4800 BR OVC004 QNH3007INS BECMG 2415/2416 VRB06KT 8000 BR BKN012 OVC025 QNH3008INS BECMG 2416/2417 36012KT 9000 -SHRA VCTS BKN015CB BKN040 QNH3002INS TX29/2322Z TN23/2410Z LAST NO AMDS AFT 2400 NEXT 2410